createdAt,value
2022-11-20T00:01:00.990Z,-0.60
2022-11-20T00:03:32.321Z,-0.60
2022-11-20T00:16:55.723Z,-0.50
2022-11-20T01:05:59.286Z,-0.30
2022-11-20T01:08:38.496Z,-0.40
2022-11-20T01:11:11.324Z,-0.40
2022-11-20T01:13:47.444Z,-0.40
2022-11-20T01:16:20.525Z,-0.40
2022-11-20T01:18:54.367Z,-0.40
2022-11-20T01:21:34.733Z,-0.40
2022-11-20T01:24:06.061Z,-0.50
2022-11-20T01:26:44.189Z,-0.50
2022-11-20T01:29:16.755Z,-0.50
2022-11-20T01:31:45.839Z,-0.40
2022-11-20T01:34:17.383Z,-0.40
2022-11-20T01:36:50.753Z,-0.50
2022-11-20T01:39:22.916Z,-0.40
2022-11-20T01:42:11.410Z,-0.40
2022-11-20T01:44:57.123Z,-0.40
2022-11-20T01:47:38.407Z,-0.40
2022-11-20T01:50:13.425Z,-0.40
2022-11-20T01:52:48.355Z,-0.50
2022-11-20T01:55:21.413Z,-0.50
2022-11-20T01:57:52.036Z,-0.60
2022-11-20T02:00:52.846Z,-0.70
2022-11-20T02:03:23.133Z,-0.70
2022-11-20T02:05:58.942Z,-0.70
2022-11-20T02:08:31.616Z,-0.80
2022-11-20T02:11:03.761Z,-0.70
2022-11-20T02:13:47.206Z,-0.60
2022-11-20T02:16:26.039Z,-0.80
2022-11-20T02:18:58.046Z,-0.50
2022-11-20T02:21:38.161Z,-0.40
2022-11-20T02:24:14.308Z,-0.30
2022-11-20T02:26:51.779Z,-0.10
2022-11-20T02:29:26.857Z,-0.50
2022-11-20T02:31:58.300Z,-0.10
2022-11-20T02:34:30.086Z,-0.20
2022-11-20T02:37:00.409Z,-0.10
2022-11-20T02:39:31.515Z,-0.10
2022-11-20T02:42:00.244Z,0.00
2022-11-20T02:44:29.342Z,0.00
2022-11-20T02:47:03.229Z,0.00
2022-11-20T02:49:33.514Z,0.10
2022-11-20T02:52:03.956Z,0.10
2022-11-20T02:54:38.716Z,0.30
2022-11-20T02:57:07.317Z,0.30
2022-11-20T02:59:38.912Z,0.40
2022-11-20T03:02:09.236Z,0.50
2022-11-20T03:04:38.110Z,0.50
2022-11-20T03:07:07.452Z,0.50
2022-11-20T03:09:38.070Z,0.50
2022-11-20T03:12:07.541Z,0.40
2022-11-20T03:14:37.044Z,0.30
2022-11-20T03:17:06.148Z,0.30
2022-11-20T03:19:35.389Z,0.20
2022-11-20T03:22:05.052Z,0.20
2022-11-20T03:24:35.023Z,0.30
2022-11-20T03:27:05.981Z,0.40
2022-11-20T03:29:34.939Z,0.40
2022-11-20T03:32:04.101Z,0.50
2022-11-20T03:34:33.093Z,0.50
2022-11-20T03:37:02.243Z,0.50
2022-11-20T03:39:30.980Z,0.50
2022-11-20T03:42:01.411Z,0.00
2022-11-20T03:44:32.787Z,0.50
2022-11-20T03:47:01.621Z,0.50
2022-11-20T03:49:30.833Z,0.70
2022-11-20T03:52:00.610Z,0.70
2022-11-20T03:54:30.785Z,0.70
2022-11-20T03:56:59.946Z,0.70
2022-11-20T03:59:28.874Z,0.70
2022-11-20T04:01:59.247Z,0.70
2022-11-20T04:04:28.310Z,0.90
2022-11-20T04:06:57.279Z,0.80
2022-11-20T04:09:26.376Z,0.70
2022-11-20T04:11:56.080Z,0.80
2022-11-20T04:14:25.698Z,0.90
2022-11-20T04:16:55.039Z,1.00
2022-11-20T04:19:27.086Z,1.10
2022-11-20T04:21:56.480Z,1.00
2022-11-20T04:24:25.800Z,1.00
2022-11-20T04:26:54.902Z,1.00
2022-11-20T04:29:23.847Z,1.00
2022-11-20T04:31:53.482Z,1.00
2022-11-20T04:34:22.183Z,1.00
2022-11-20T04:36:52.652Z,1.00
2022-11-20T04:39:21.748Z,0.90
2022-11-20T04:42:10.992Z,0.90
2022-11-20T04:44:42.099Z,0.90
2022-11-20T04:47:11.019Z,0.90
2022-11-20T04:49:40.035Z,0.90
2022-11-20T04:52:11.206Z,0.80
2022-11-20T04:54:40.456Z,0.90
2022-11-20T04:57:14.284Z,1.00
2022-11-20T04:59:44.260Z,1.00
2022-11-20T05:02:14.670Z,0.90
2022-11-20T05:04:43.628Z,1.10
2022-11-20T05:07:14.906Z,1.20
2022-11-20T05:09:44.840Z,1.20
2022-11-20T05:12:14.342Z,1.30
2022-11-20T05:14:43.608Z,1.40
2022-11-20T05:17:17.907Z,1.30
2022-11-20T05:19:51.984Z,1.30
2022-11-20T05:22:23.936Z,1.30
2022-11-20T05:24:53.119Z,1.40
2022-11-20T05:27:24.041Z,1.40
2022-11-20T05:29:53.157Z,1.40
2022-11-20T05:32:26.972Z,1.50
2022-11-20T05:34:56.963Z,1.50
2022-11-20T05:37:27.376Z,1.50
2022-11-20T05:39:56.318Z,1.50
2022-11-20T05:42:37.926Z,1.50
2022-11-20T05:45:08.732Z,1.40
2022-11-20T05:47:37.771Z,1.40
2022-11-20T05:50:08.197Z,1.40
2022-11-20T05:52:39.084Z,1.40
2022-11-20T05:55:09.862Z,1.50
2022-11-20T05:57:39.137Z,1.50
2022-11-20T06:00:11.153Z,1.50
2022-11-20T06:02:40.011Z,1.50
2022-11-20T06:05:10.435Z,1.40
2022-11-20T06:07:42.295Z,1.50
2022-11-20T06:10:12.381Z,1.40
2022-11-20T06:12:43.866Z,1.40
2022-11-20T06:15:12.964Z,1.40
2022-11-20T06:17:45.376Z,1.40
2022-11-20T06:20:15.497Z,1.40
2022-11-20T06:22:48.038Z,1.40
2022-11-20T06:25:19.101Z,1.30
2022-11-20T06:27:48.206Z,1.30
2022-11-20T06:30:18.246Z,1.20
2022-11-20T06:32:47.209Z,1.10
2022-11-20T06:35:17.560Z,1.10
2022-11-20T06:37:48.767Z,1.00
2022-11-20T06:40:18.096Z,0.90
2022-11-20T06:42:47.746Z,1.00
2022-11-20T06:45:16.828Z,0.90
2022-11-20T06:47:46.268Z,0.90
2022-11-20T06:50:15.276Z,0.80
2022-11-20T06:52:44.793Z,0.80
2022-11-20T06:55:15.542Z,0.80
2022-11-20T06:57:44.879Z,0.80
2022-11-20T07:00:15.092Z,0.80
2022-11-20T07:02:44.908Z,0.60
2022-11-20T07:05:14.485Z,0.80
2022-11-20T07:07:43.672Z,0.90
2022-11-20T07:10:15.540Z,0.50
2022-11-20T07:12:44.781Z,1.10
2022-11-20T07:15:13.738Z,1.20
2022-11-20T07:17:42.526Z,1.30
2022-11-20T07:20:12.376Z,1.10
2022-11-20T07:22:41.947Z,1.40
2022-11-20T07:25:12.583Z,1.60
2022-11-20T07:27:43.402Z,1.60
2022-11-20T07:30:18.197Z,1.70
2022-11-20T07:32:51.003Z,1.70
2022-11-20T07:35:21.695Z,1.50
2022-11-20T07:37:51.983Z,1.60
2022-11-20T07:40:21.517Z,1.60
2022-11-20T07:42:52.929Z,1.90
2022-11-20T07:45:23.306Z,1.50
2022-11-20T07:48:03.377Z,1.40
2022-11-20T07:50:32.594Z,1.40
2022-11-20T07:53:07.110Z,1.40
2022-11-20T07:55:36.097Z,1.30
2022-11-20T07:58:06.895Z,1.30
2022-11-20T08:00:35.673Z,1.30
2022-11-20T08:03:06.657Z,1.30
2022-11-20T08:05:35.797Z,1.30
2022-11-20T08:08:04.827Z,1.40
2022-11-20T08:10:34.546Z,1.40
2022-11-20T08:13:20.922Z,1.50
2022-11-20T08:15:53.305Z,1.60
2022-11-20T08:18:31.104Z,1.50
2022-11-20T08:21:04.412Z,1.70
2022-11-20T08:23:33.494Z,1.80
2022-11-20T08:26:02.374Z,2.00
2022-11-20T08:28:31.699Z,2.20
2022-11-20T08:31:07.275Z,2.30
2022-11-20T08:33:37.869Z,2.50
2022-11-20T08:36:10.699Z,2.50
2022-11-20T08:38:39.734Z,2.70
2022-11-20T08:41:28.415Z,2.80
2022-11-20T08:44:02.316Z,2.80
2022-11-20T08:46:40.650Z,2.80
2022-11-20T08:49:12.083Z,2.30
2022-11-20T08:51:43.377Z,2.70
2022-11-20T08:54:14.971Z,2.80
2022-11-20T08:56:46.760Z,3.00
2022-11-20T08:59:31.312Z,3.30
2022-11-20T09:02:08.349Z,3.40
2022-11-20T09:04:39.420Z,3.30
2022-11-20T09:07:11.638Z,3.40
2022-11-20T09:09:42.150Z,3.60
2022-11-20T09:12:11.165Z,3.40
2022-11-20T09:14:40.824Z,3.50
2022-11-20T09:17:15.076Z,3.60
2022-11-20T09:19:45.187Z,3.70
2022-11-20T09:22:17.927Z,3.60
2022-11-20T09:24:47.906Z,3.40
2022-11-20T09:27:17.091Z,3.40
2022-11-20T09:29:46.851Z,3.40
2022-11-20T09:32:20.784Z,3.50
2022-11-20T09:34:49.817Z,3.70
2022-11-20T09:37:19.494Z,4.00
2022-11-20T09:39:48.783Z,4.20
2022-11-20T09:42:31.739Z,4.40
2022-11-20T09:45:26.822Z,4.80
2022-11-20T09:48:23.078Z,4.90
2022-11-20T09:50:59.533Z,5.70
2022-11-20T09:53:39.856Z,6.00
2022-11-20T09:56:18.355Z,6.30
2022-11-20T09:58:56.247Z,6.40
2022-11-20T10:01:33.166Z,6.50
2022-11-20T10:04:08.256Z,6.80
2022-11-20T10:06:59.404Z,7.00
2022-11-20T10:09:45.633Z,6.90
2022-11-20T10:12:25.759Z,6.70
2022-11-20T10:15:07.261Z,6.60
2022-11-20T10:18:03.556Z,8.30
2022-11-20T10:20:48.133Z,6.60
2022-11-20T10:23:33.955Z,7.10
2022-11-20T10:26:10.748Z,6.80
2022-11-20T10:28:59.258Z,5.60
2022-11-20T10:31:42.304Z,6.40
2022-11-20T10:34:27.627Z,6.40
2022-11-20T10:37:08.389Z,6.60
2022-11-20T10:39:51.545Z,6.30
2022-11-20T10:42:41.810Z,6.30
2022-11-20T10:51:11.607Z,8.50
2022-11-20T10:54:16.309Z,9.20
2022-11-20T11:00:34.378Z,9.60
2022-11-20T11:06:18.749Z,7.40
2022-11-20T11:08:57.071Z,6.90
2022-11-20T11:11:32.261Z,6.50
2022-11-20T11:14:17.425Z,6.20
2022-11-20T11:17:16.367Z,6.00
2022-11-20T11:19:48.103Z,5.40
2022-11-20T11:22:36.233Z,5.80
2022-11-20T11:25:14.198Z,5.60
2022-11-20T11:27:52.292Z,5.50
2022-11-20T11:33:25.346Z,5.30
2022-11-20T11:38:44.602Z,5.20
2022-11-20T11:41:19.694Z,5.20
2022-11-20T11:44:14.058Z,5.20
2022-11-20T11:46:54.389Z,5.30
2022-11-20T11:49:27.583Z,5.30
2022-11-20T11:52:11.998Z,5.30
2022-11-20T11:54:56.687Z,5.30
2022-11-20T11:57:37.900Z,5.30
2022-11-20T12:00:15.142Z,5.30
2022-11-20T12:03:03.734Z,5.30
2022-11-20T12:05:38.888Z,5.30
2022-11-20T12:08:23.913Z,5.00
2022-11-20T12:11:02.937Z,5.20
2022-11-20T12:13:46.326Z,5.20
2022-11-20T12:16:20.979Z,4.90
2022-11-20T12:19:16.446Z,5.50
2022-11-20T12:22:01.991Z,5.50
2022-11-20T12:24:57.052Z,5.20
2022-11-20T12:27:59.788Z,5.20
2022-11-20T12:30:30.740Z,5.10
2022-11-20T12:33:37.407Z,5.10
2022-11-20T12:36:28.619Z,5.20
2022-11-20T12:39:21.672Z,5.20
2022-11-20T12:42:19.445Z,5.30
2022-11-20T12:45:46.135Z,5.40
2022-11-20T12:48:56.812Z,5.40
2022-11-20T12:52:47.151Z,5.60
2022-11-20T12:55:55.670Z,5.70
2022-11-20T12:58:47.863Z,5.60
2022-11-20T13:01:53.673Z,5.40
2022-11-20T13:04:46.023Z,5.50
2022-11-20T13:07:30.356Z,5.60
2022-11-20T13:10:22.006Z,5.60
2022-11-20T13:13:22.217Z,5.50
2022-11-20T13:19:21.897Z,6.10
2022-11-20T13:27:59.291Z,5.40
2022-11-20T13:36:51.776Z,5.20
2022-11-20T13:39:57.220Z,5.20
2022-11-20T13:49:26.099Z,5.30
2022-11-20T14:06:17.464Z,5.20
2022-11-20T14:08:52.379Z,4.80
2022-11-20T14:11:29.400Z,5.20
2022-11-20T14:14:12.757Z,5.10
2022-11-20T14:16:47.558Z,5.10
2022-11-20T14:19:32.809Z,5.20
2022-11-20T14:28:51.864Z,5.00
2022-11-20T14:41:41.581Z,4.90
2022-11-20T14:48:24.039Z,5.00
2022-11-20T14:51:11.616Z,5.00
2022-11-20T14:54:01.751Z,5.10
2022-11-20T14:56:35.859Z,5.00
2022-11-20T14:59:07.632Z,4.90
2022-11-20T15:02:04.846Z,5.10
2022-11-20T15:04:37.814Z,5.00
2022-11-20T15:07:14.036Z,5.00
2022-11-20T15:09:43.455Z,5.00
2022-11-20T15:12:21.663Z,5.00
2022-11-20T15:14:52.258Z,4.90
2022-11-20T15:17:21.970Z,4.90
2022-11-20T15:19:55.472Z,4.90
2022-11-20T15:22:25.220Z,4.70
2022-11-20T15:24:54.544Z,4.80
2022-11-20T15:27:25.003Z,6.10
2022-11-20T15:30:00.305Z,5.60
2022-11-20T15:32:35.592Z,5.40
2022-11-20T16:08:13.126Z,5.70
2022-11-20T17:16:36.769Z,4.80
2022-11-20T17:19:39.886Z,4.80
2022-11-20T17:28:35.300Z,4.70
2022-11-20T17:31:20.603Z,4.70
2022-11-20T17:37:53.841Z,4.80
2022-11-20T17:40:50.945Z,4.70
2022-11-20T17:43:23.555Z,4.80
2022-11-20T17:46:00.000Z,5.20
2022-11-20T17:48:32.205Z,5.00
2022-11-20T17:51:30.459Z,5.00
2022-11-20T17:54:35.532Z,5.10
2022-11-20T17:57:34.014Z,5.10
2022-11-20T18:02:54.802Z,4.70
2022-11-20T18:05:27.858Z,5.30
2022-11-20T18:08:28.953Z,5.30
2022-11-20T18:11:57.013Z,5.50
2022-11-20T19:27:32.421Z,6.60
2022-11-20T19:33:30.580Z,6.40
2022-11-20T19:36:49.362Z,6.70
2022-11-20T19:43:19.813Z,6.90
2022-11-20T19:46:13.384Z,7.00
2022-11-20T19:49:12.642Z,7.00
2022-11-20T19:51:55.056Z,6.90
2022-11-20T19:57:47.842Z,7.10
2022-11-20T20:00:40.483Z,7.10
2022-11-20T20:06:52.142Z,7.30
2022-11-20T20:12:48.738Z,7.30
2022-11-20T20:15:41.483Z,7.30
2022-11-20T20:19:04.060Z,7.30
2022-11-20T20:25:03.685Z,7.30
2022-11-20T20:54:05.435Z,7.40
2022-11-20T21:02:37.153Z,6.90
2022-11-20T21:05:08.565Z,6.80
2022-11-20T21:07:51.186Z,6.80
2022-11-20T21:10:26.059Z,6.80
2022-11-20T21:13:04.373Z,6.70
2022-11-20T21:15:47.393Z,6.70
2022-11-20T21:18:20.524Z,6.70
2022-11-20T21:21:06.909Z,7.00
2022-11-20T21:23:38.169Z,7.00
2022-11-20T21:26:24.641Z,6.80
2022-11-20T21:29:06.344Z,6.40
2022-11-20T21:31:38.925Z,7.00
2022-11-20T21:34:13.391Z,6.50
2022-11-20T21:36:42.746Z,6.50
2022-11-20T21:42:35.532Z,6.40
2022-11-20T21:45:04.854Z,6.40
2022-11-20T21:50:23.982Z,6.30
2022-11-20T21:53:01.483Z,6.30
2022-11-20T21:55:38.033Z,6.20
2022-11-20T21:58:13.347Z,6.10
2022-11-20T22:00:43.837Z,6.10
2022-11-20T22:03:24.836Z,6.40
2022-11-20T22:06:11.121Z,5.70
2022-11-20T22:08:41.759Z,6.00
2022-11-20T22:11:37.520Z,5.90
2022-11-20T22:14:28.755Z,5.80
2022-11-20T22:16:57.987Z,5.80
2022-11-20T22:19:34.713Z,5.70
2022-11-20T22:22:13.158Z,5.70
2022-11-20T22:25:00.635Z,5.90
2022-11-20T22:27:29.954Z,5.60
2022-11-20T22:30:01.608Z,5.60
2022-11-20T22:32:39.008Z,5.50
2022-11-20T22:35:09.892Z,5.10
2022-11-20T22:37:40.905Z,5.40
2022-11-20T22:40:13.526Z,5.40
2022-11-20T22:46:30.755Z,5.40
2022-11-20T22:49:34.278Z,5.80
2022-11-20T22:52:12.585Z,5.20
2022-11-20T22:55:00.174Z,5.30
2022-11-20T23:00:45.335Z,5.20
2022-11-20T23:03:17.466Z,4.80
2022-11-20T23:08:49.122Z,5.10
2022-11-20T23:11:24.886Z,5.00
2022-11-20T23:14:08.904Z,5.00
2022-11-20T23:16:43.834Z,5.00
2022-11-20T23:19:29.058Z,5.00
2022-11-20T23:21:59.699Z,4.90
2022-11-20T23:24:29.651Z,4.00
2022-11-20T23:26:58.965Z,4.90
2022-11-20T23:29:35.199Z,4.90
2022-11-20T23:32:06.997Z,4.80
2022-11-20T23:34:46.411Z,4.80
2022-11-20T23:37:23.491Z,4.80
2022-11-20T23:42:38.096Z,4.60
2022-11-20T23:45:08.254Z,4.80
2022-11-20T23:47:37.313Z,4.80
2022-11-20T23:50:06.915Z,4.90
2022-11-20T23:52:38.659Z,4.90
2022-11-20T23:55:08.196Z,4.90
2022-11-20T23:57:37.273Z,4.90
